Apalachicola, Florida
Current Conditions -  °F | °C
As of 10:53 AM on Wednesday 22 Oct 2014 (Local Time) from KAAF Reporting Station
Clear Clear  
Wind Chill: 74°   Ceiling: Unl
Heat Index: 74°   Visibility: 10mi
Dew Point: 53°   Wind: 10mph
Humidity: 48%   Direction: 50°NE
Pressure: 30.05"   Gusts: NA
Location:  29.73°N, 84.99°W
Report Text: KAAF 221453Z AUTO 05009KT 10SM CLR 23/12 A3005 RMK AO2 SLP176 T02330117 51012 TSNO
Loading
Personal Weather Stations






























Interactive Weather Map
Tropical Storm Tracking
New forecast layout! Learn more

10-Day Weather Forecast

Advertisements
Track Severe Weather on mobile